首页
METAR-TAF:

METAR-TAF

机场 :

阿什维尔, 北卡罗来纳州, 美国

纬度: 35-25-55N, 经度: 082-32-15W, 海拔: 660米

当前天气观测

该预报发布于1小时和2分钟前的09:54 UTC
风速5节,风向北转西北
温度 3°C
湿度 87%
气压 1022 hPa
能見度: 16.1公里
天空无云

METAR: KAVL 150954Z AUTO 34005KT 10SM CLR 03/01 A3019 RMK AO2 SLP227 T00330006

时间: 05:56 (10:56 UTC)

预报

该预报发布于5小时和16分钟前的05:40 UTC
预报有效从15日的 06点(UTC)到 16日的 06点(UTC)
风速3节,风向多变
能見度: 10公里
阴天层高于5000英尺
附近有阵雨
从 15日的 1200点(UTC)
风速8节,风向
能見度: 10公里
多云层高于6000英尺

TAF: KAVL 150540Z 1506/1606 VRB03KT P6SM VCSH OVC050 FM151200 35008KT P6SM BKN060

超过4000个机场的气象观测和天气预报(METAR&TAF报告)。

可查询的气象台以黄色和红色小点在地图上表示。

将鼠标移到小点上方,可查看气象台名称。

然后点击查看天气观测和预报。

如需切换地图:点击带黑十字的绿色按钮放大地图;点击带横线的绿色按钮缩小地图;或者点击绿色箭头查看邻近地区的地图。


METAR-TAF: